Lampang, Thailand

8:22 AM +07 on April 24, 2017 (GMT +0700)
Tambon Pichai | | Change Station

Elev 787 ft 18.30 °N, 99.52 °E | Updated 1 second ago

Clear
Clear
86.4 °F
Feels Like 88 °F
N
0.0
Wind Variable Wind from East
Gusts 0.7 mph

Today
High -- | Low -- °F
--% Chance of Precip.
Yesterday
High -- | Low -- °F
Precip. -- in
Pressure 29.86 in
Visibility 5.0 miles
Clouds
Heat Index 88 °F
Dew Point 64 °F
Humidity 47%
Rainfall 0.00 in
Snow Depth Not available.
5:59 AM 6:41 PM
Waning Crescent, 8% visible
METAR VTCL 240100Z 12003KT 100V160 8000 NSC 28/20 Q1011 A2987
Pressure 29.86 in
Visibility 5.0 miles
Clouds
Heat Index 88 °F
Dew Point 64 °F
Humidity 47%
Rainfall 0.00 in
Snow Depth Not available.
5:59 AM 6:41 PM
Waning Crescent, 8% visible
METAR VTCL 240100Z 12003KT 100V160 8000 NSC 28/20 Q1011 A2987

Get Severe Weather Alerts

Thanks for signing up!

Be on the lookout for a verification email in your inbox.

You'll start receiving the daily forecast at 8 AM.

×

10-Day Weather Forecast

No radar image for this location.
×

Almanac

Astronomy

Apr. 24, 2017 Rise Set
Actual Time
Civil Twilight
Nautical Twilight
Astronomical Twilight
Moon
Length of Visible Light
Length of Day
Tomorrow will be .
, % of the Moon is Illuminated

Today's Extremes

Country Highs Country Lows

Community

WunderPhotos

WunderBlog® & News

Nearby

Air Quality

  Air Quality AQ Index Pollutant
Not available.

Snow Depth

Station Depth Elevation

Earthquake Activity

City Distance Mag. Time & Date
Minimum magnitude displayed is 2.5.

Coastal Water Temperatures

Place Temperature

Stations

Nearby Weather Stations

Station Location Temp. Windchill Dew Point Humidity Wind Precip. Elev Updated Type